createdAt,value
2019-04-06T00:00:57.695Z,0.97
2019-04-06T00:03:27.619Z,0.99
2019-04-06T00:05:57.559Z,0.94
2019-04-06T00:08:27.594Z,0.86
2019-04-06T00:10:57.582Z,0.77
2019-04-06T00:13:27.556Z,0.79
2019-04-06T00:15:58.115Z,1.09
2019-04-06T00:18:27.200Z,1.21
2019-04-06T00:20:57.064Z,1.33
2019-04-06T00:23:27.051Z,1.17
2019-04-06T00:25:56.962Z,1.04
2019-04-06T00:28:27.060Z,1.14
2019-04-06T00:31:04.345Z,0.96
2019-04-06T00:33:34.279Z,0.76
2019-04-06T00:36:04.317Z,0.84
2019-04-06T00:38:34.481Z,0.72
2019-04-06T00:41:04.536Z,0.54
2019-04-06T00:43:35.733Z,0.45
2019-04-06T00:46:05.652Z,0.36
2019-04-06T00:48:35.641Z,0.28
2019-04-06T00:51:05.683Z,0.29
2019-04-06T00:53:35.796Z,0.32
2019-04-06T00:56:06.476Z,0.27
2019-04-06T00:58:36.404Z,0.24
2019-04-06T01:01:06.246Z,0.24
2019-04-06T01:03:36.243Z,0.27
2019-04-06T01:06:06.195Z,0.32
2019-04-06T01:08:36.253Z,0.36
2019-04-06T01:11:06.401Z,0.27
2019-04-06T01:13:37.865Z,0.32
2019-04-06T01:16:11.687Z,0.42
2019-04-06T01:18:46.355Z,0.34
2019-04-06T01:21:16.559Z,0.24
2019-04-06T01:23:49.266Z,0.35
2019-04-06T01:26:22.163Z,0.33
2019-04-06T01:28:55.794Z,0.53
2019-04-06T01:31:25.812Z,0.61
2019-04-06T01:33:55.764Z,0.63
2019-04-06T01:36:25.782Z,0.63
2019-04-06T01:38:55.815Z,0.73
2019-04-06T01:41:25.746Z,0.47
2019-04-06T01:43:55.790Z,0.37
2019-04-06T01:46:25.723Z,0.28
2019-04-06T01:48:55.669Z,0.17
2019-04-06T01:51:25.720Z,0.21
2019-04-06T01:53:55.728Z,0.24
2019-04-06T01:56:25.668Z,0.31
2019-04-06T01:58:55.703Z,0.17
2019-04-06T02:01:33.208Z,0.08
2019-04-06T02:04:03.249Z,-0.08
2019-04-06T02:06:33.286Z,-0.15
2019-04-06T02:09:05.051Z,-0.13
2019-04-06T02:11:35.105Z,-0.07
2019-04-06T02:14:05.237Z,-0.14
2019-04-06T02:16:35.271Z,0.05
2019-04-06T02:19:05.486Z,0.03
2019-04-06T02:21:35.543Z,0.03
2019-04-06T02:24:05.583Z,0.19
2019-04-06T02:26:35.620Z,0.28
2019-04-06T02:29:05.656Z,0.35
2019-04-06T02:31:37.129Z,0.24
2019-04-06T02:34:23.975Z,0.27
2019-04-06T02:37:10.850Z,0.04
2019-04-06T02:39:42.422Z,-0.03
2019-04-06T02:42:26.225Z,-0.11
2019-04-06T02:44:56.296Z,-0.07
2019-04-06T02:47:26.406Z,-0.14
2019-04-06T02:49:56.479Z,-0.16
2019-04-06T02:52:26.525Z,-0.24
2019-04-06T02:54:56.562Z,-0.37
2019-04-06T02:57:28.024Z,-0.40
2019-04-06T02:59:59.596Z,-0.53
2019-04-06T03:02:29.629Z,-0.62
2019-04-06T03:05:00.682Z,-0.70
2019-04-06T03:07:31.755Z,-0.53
2019-04-06T03:10:01.959Z,-0.49
2019-04-06T03:12:32.028Z,-0.44
2019-04-06T03:15:02.034Z,-0.35
2019-04-06T03:17:32.103Z,-0.45
2019-04-06T03:20:02.050Z,-0.35
2019-04-06T03:22:32.075Z,-0.36
2019-04-06T03:25:02.108Z,-0.29
2019-04-06T03:27:32.240Z,0.03
2019-04-06T03:30:02.424Z,-0.01
2019-04-06T03:32:32.531Z,-0.07
2019-04-06T03:35:02.645Z,-0.05
2019-04-06T03:37:32.610Z,0.01
2019-04-06T03:40:02.526Z,0.08
2019-04-06T03:42:32.468Z,0.11
2019-04-06T03:45:02.769Z,0.21
2019-04-06T03:47:32.957Z,0.36
2019-04-06T03:50:03.087Z,0.36
2019-04-06T03:52:33.123Z,0.46
2019-04-06T03:55:03.183Z,0.41
2019-04-06T03:57:33.923Z,0.58
2019-04-06T04:00:04.013Z,0.63
2019-04-06T04:02:33.983Z,0.63
2019-04-06T04:05:04.433Z,0.63
2019-04-06T04:07:33.681Z,0.68
2019-04-06T04:10:04.112Z,0.95
2019-04-06T04:12:33.242Z,1.07
2019-04-06T04:15:03.046Z,1.16
2019-04-06T04:17:32.984Z,1.32
2019-04-06T04:20:03.020Z,1.51
2019-04-06T04:22:34.961Z,1.64
2019-04-06T04:25:05.972Z,1.65
2019-04-06T04:27:36.142Z,1.80
2019-04-06T04:30:08.379Z,1.91
2019-04-06T04:32:38.350Z,2.08
2019-04-06T04:35:09.475Z,2.33
2019-04-06T04:37:39.570Z,2.50
2019-04-06T04:40:11.276Z,2.68
2019-04-06T04:42:41.229Z,2.91
2019-04-06T04:45:11.346Z,3.10
2019-04-06T04:47:41.460Z,3.18
2019-04-06T04:50:11.643Z,3.36
2019-04-06T04:52:41.675Z,3.54
2019-04-06T04:55:12.439Z,3.74
2019-04-06T04:57:44.997Z,3.91
2019-04-06T05:00:14.320Z,4.13
2019-04-06T05:02:44.274Z,4.27
2019-04-06T05:05:14.348Z,4.45
2019-04-06T05:07:44.256Z,4.61
2019-04-06T05:10:14.391Z,4.82
2019-04-06T05:12:44.325Z,5.02
2019-04-06T05:15:29.435Z,5.25
2019-04-06T05:17:59.361Z,5.44
2019-04-06T05:20:29.276Z,5.59
2019-04-06T05:22:59.303Z,5.70
2019-04-06T05:25:29.436Z,5.90
2019-04-06T05:27:59.485Z,6.16
2019-04-06T05:30:29.512Z,6.35
2019-04-06T05:32:59.554Z,6.52
2019-04-06T05:35:29.631Z,6.58
2019-04-06T05:38:00.236Z,6.73
2019-04-06T05:40:29.481Z,6.91
2019-04-06T05:42:59.384Z,7.14
2019-04-06T05:45:29.352Z,7.33
2019-04-06T05:47:59.371Z,7.57
2019-04-06T05:50:29.524Z,7.70
2019-04-06T05:52:59.440Z,7.92
2019-04-06T05:55:29.363Z,8.17
2019-04-06T05:58:03.918Z,8.26
2019-04-06T06:00:31.175Z,8.40
2019-04-06T06:03:01.119Z,8.61
2019-04-06T06:05:31.149Z,8.87
2019-04-06T06:08:01.256Z,9.02
2019-04-06T06:10:31.221Z,9.12
2019-04-06T06:13:01.267Z,9.34
2019-04-06T06:15:31.302Z,9.44
2019-04-06T06:18:01.346Z,9.65
2019-04-06T06:20:31.375Z,9.69
2019-04-06T06:23:01.304Z,9.78
2019-04-06T06:25:31.150Z,10.39
2019-04-06T06:28:01.072Z,12.36
2019-04-06T06:30:31.108Z,15.88
2019-04-06T06:33:01.074Z,18.54
2019-04-06T06:35:31.189Z,20.67
2019-04-06T06:38:01.131Z,22.38
2019-04-06T06:40:31.116Z,23.71
2019-04-06T06:43:01.197Z,24.67
2019-04-06T06:45:31.127Z,25.56
2019-04-06T06:48:01.174Z,25.81
2019-04-06T06:50:31.202Z,26.44
2019-04-06T06:53:01.216Z,27.49
2019-04-06T06:55:31.430Z,28.46
2019-04-06T06:58:01.477Z,28.73
2019-04-06T07:00:31.500Z,28.51
2019-04-06T07:03:02.529Z,28.88
2019-04-06T07:05:32.551Z,29.28
2019-04-06T07:08:02.579Z,29.55
2019-04-06T07:10:32.699Z,29.63
2019-04-06T07:13:02.669Z,29.89
2019-04-06T07:15:34.039Z,30.01
2019-04-06T07:18:03.937Z,30.49
2019-04-06T07:20:33.891Z,30.75
2019-04-06T07:23:03.937Z,30.47
2019-04-06T07:25:33.869Z,30.62
2019-04-06T07:28:03.898Z,30.48
2019-04-06T07:30:33.938Z,30.75
2019-04-06T07:33:03.870Z,31.08
2019-04-06T07:35:33.920Z,31.60
2019-04-06T07:38:04.061Z,31.48
2019-04-06T07:40:34.178Z,31.77
2019-04-06T07:43:03.462Z,31.81
2019-04-06T07:45:33.342Z,32.39
2019-04-06T07:48:03.384Z,32.99
2019-04-06T07:50:33.414Z,33.51
2019-04-06T07:53:03.456Z,33.94
2019-04-06T07:55:32.768Z,34.14
2019-04-06T07:58:02.930Z,34.16
2019-04-06T08:00:33.060Z,34.00
2019-04-06T08:03:02.999Z,32.96
2019-04-06T08:05:32.925Z,33.05
2019-04-06T08:08:02.861Z,32.05
2019-04-06T08:10:32.106Z,33.72
2019-04-06T08:13:01.905Z,34.39
2019-04-06T08:15:31.951Z,34.85
2019-04-06T08:18:01.984Z,33.99
2019-04-06T08:20:31.129Z,33.69
2019-04-06T08:23:01.037Z,34.16
2019-04-06T08:25:31.889Z,35.24
2019-04-06T08:28:01.828Z,35.84
2019-04-06T08:30:31.756Z,35.88
2019-04-06T08:33:01.921Z,36.14
2019-04-06T08:35:31.937Z,36.28
2019-04-06T08:38:01.869Z,36.13
2019-04-06T08:40:32.020Z,36.31
2019-04-06T08:43:02.051Z,36.65
2019-04-06T08:45:32.075Z,37.12
2019-04-06T08:48:02.171Z,36.84
2019-04-06T08:50:32.324Z,36.95
2019-04-06T08:53:02.409Z,36.15
2019-04-06T08:55:32.440Z,35.35
2019-04-06T08:58:02.468Z,35.45
2019-04-06T09:00:32.520Z,35.48
2019-04-06T09:03:02.572Z,35.99
2019-04-06T09:05:32.588Z,36.06
2019-04-06T09:08:02.521Z,36.69
2019-04-06T09:10:32.451Z,37.35
2019-04-06T09:13:02.631Z,37.81
2019-04-06T09:15:32.633Z,36.55
2019-04-06T09:18:02.565Z,36.40
2019-04-06T09:20:32.603Z,36.51
2019-04-06T09:23:02.739Z,36.32
2019-04-06T09:25:32.679Z,36.27
2019-04-06T09:28:02.603Z,35.43
2019-04-06T09:30:32.544Z,33.77
2019-04-06T09:33:02.583Z,32.23
2019-04-06T09:35:32.511Z,31.29
2019-04-06T09:38:02.459Z,31.21
2019-04-06T09:40:32.380Z,32.39
2019-04-06T09:43:02.325Z,31.79
2019-04-06T09:45:36.851Z,31.15
2019-04-06T09:48:11.186Z,33.19
2019-04-06T09:50:59.341Z,33.14
2019-04-06T09:53:47.908Z,35.13
2019-04-06T09:56:22.519Z,36.17
2019-04-06T09:59:09.573Z,33.97
2019-04-06T10:01:52.973Z,32.45
2019-04-06T10:04:24.537Z,30.28
2019-04-06T10:07:11.455Z,31.39
2019-04-06T10:09:59.488Z,33.84
2019-04-06T10:12:37.091Z,35.61
2019-04-06T10:15:27.101Z,36.60
2019-04-06T10:18:17.314Z,37.81
2019-04-06T10:21:07.302Z,35.32
2019-04-06T10:23:38.919Z,33.87
2019-04-06T10:26:26.848Z,33.36
2019-04-06T10:28:58.437Z,37.20
2019-04-06T10:31:32.960Z,37.73
2019-04-06T10:34:07.194Z,38.59
2019-04-06T10:36:47.881Z,40.16
2019-04-06T10:39:35.898Z,40.79
2019-04-06T10:42:07.551Z,41.09
2019-04-06T10:44:42.113Z,37.47
2019-04-06T10:47:16.776Z,36.45
2019-04-06T10:49:48.315Z,39.04
2019-04-06T10:52:29.094Z,40.37
2019-04-06T10:55:12.800Z,42.37
2019-04-06T10:57:59.550Z,42.85
2019-04-06T11:00:46.148Z,43.98
2019-04-06T11:03:32.959Z,43.70
2019-04-06T11:06:20.756Z,43.61
2019-04-06T11:08:58.358Z,45.64
2019-04-06T11:11:32.890Z,44.91
2019-04-06T11:14:16.784Z,44.01
2019-04-06T11:17:06.712Z,44.83
2019-04-06T11:19:38.779Z,45.74
2019-04-06T11:22:19.318Z,45.43
2019-04-06T11:24:53.770Z,46.30
2019-04-06T11:27:31.060Z,47.49
2019-04-06T11:30:14.288Z,47.14
2019-04-06T11:32:44.828Z,49.06
2019-04-06T11:35:19.323Z,49.95
2019-04-06T11:37:53.735Z,50.54
2019-04-06T11:40:34.291Z,51.08
2019-04-06T11:43:21.079Z,48.62
2019-04-06T11:45:58.687Z,48.85
2019-04-06T11:48:42.337Z,46.61
2019-04-06T11:51:32.510Z,45.49
2019-04-06T11:54:20.331Z,44.13
2019-04-06T11:57:07.252Z,45.52
2019-04-06T11:59:47.939Z,46.18
2019-04-06T12:02:22.750Z,47.09
2019-04-06T12:04:54.247Z,47.84
2019-04-06T12:07:42.158Z,47.38
2019-04-06T12:10:29.403Z,46.58
2019-04-06T12:13:03.672Z,47.61
2019-04-06T12:15:35.191Z,49.01
2019-04-06T12:18:06.765Z,49.00
2019-04-06T12:20:41.707Z,49.92
2019-04-06T12:23:16.303Z,50.70
2019-04-06T12:25:48.797Z,49.75
2019-04-06T12:28:23.293Z,49.87
2019-04-06T12:30:54.770Z,50.13
2019-04-06T12:33:32.659Z,50.07
2019-04-06T12:36:07.191Z,48.51
2019-04-06T12:38:48.792Z,48.42
2019-04-06T12:41:36.684Z,47.68
2019-04-06T12:44:24.663Z,48.17
2019-04-06T12:47:02.370Z,48.38
2019-04-06T12:49:33.951Z,48.41
2019-04-06T12:52:20.754Z,48.15
2019-04-06T12:54:52.324Z,44.13
2019-04-06T12:57:35.961Z,46.68
2019-04-06T13:00:25.432Z,46.94
2019-04-06T13:02:58.972Z,46.72
2019-04-06T13:05:33.214Z,47.08
2019-04-06T13:08:10.680Z,46.62
2019-04-06T13:10:52.885Z,45.96
2019-04-06T13:13:30.181Z,42.74
2019-04-06T13:16:04.713Z,41.88
2019-04-06T13:18:47.947Z,42.33
2019-04-06T13:21:22.399Z,42.86
2019-04-06T13:23:57.029Z,43.06
2019-04-06T13:26:28.632Z,42.53
2019-04-06T13:29:08.824Z,41.66
2019-04-06T13:31:46.151Z,40.80
2019-04-06T13:34:20.764Z,40.35
2019-04-06T13:36:52.375Z,39.20
2019-04-06T13:39:40.098Z,38.03
2019-04-06T13:42:26.747Z,36.36
2019-04-06T13:45:01.715Z,35.22
2019-04-06T13:47:36.753Z,35.00
2019-04-06T13:50:27.499Z,35.33
2019-04-06T13:53:00.909Z,35.27
2019-04-06T13:55:35.442Z,34.83
2019-04-06T13:58:13.258Z,34.51
2019-04-06T14:00:44.831Z,33.54
2019-04-06T14:03:16.693Z,32.61
2019-04-06T14:06:06.588Z,31.99
2019-04-06T14:08:44.412Z,30.91
2019-04-06T14:11:28.166Z,30.89
2019-04-06T14:14:02.482Z,31.20
2019-04-06T14:16:50.508Z,31.26
2019-04-06T14:19:28.580Z,30.83
2019-04-06T14:22:05.524Z,30.43
2019-04-06T14:24:49.458Z,30.06
2019-04-06T14:27:33.350Z,29.10
2019-04-06T14:30:21.286Z,28.82
2019-04-06T14:33:07.947Z,28.75
2019-04-06T14:35:42.290Z,28.59
2019-04-06T14:38:26.018Z,28.19
2019-04-06T14:41:16.468Z,27.87
2019-04-06T14:44:03.329Z,27.06
2019-04-06T14:46:34.895Z,26.58
2019-04-06T14:49:13.835Z,26.81
2019-04-06T14:51:56.042Z,26.66
2019-04-06T14:54:39.959Z,26.46
2019-04-06T14:57:17.490Z,26.00
2019-04-06T15:00:07.612Z,25.37
2019-04-06T15:02:39.180Z,25.06
2019-04-06T15:05:25.753Z,24.74
2019-04-06T15:07:57.569Z,24.40
2019-04-06T15:10:35.139Z,23.95
2019-04-06T15:13:09.995Z,23.64
2019-04-06T15:15:47.821Z,23.28
2019-04-06T15:18:35.256Z,22.97
2019-04-06T15:21:13.223Z,22.62
2019-04-06T15:23:53.802Z,22.31
2019-04-06T15:26:41.935Z,21.83
2019-04-06T15:29:16.395Z,21.35
2019-04-06T15:31:51.070Z,20.89
2019-04-06T15:34:37.616Z,20.32
2019-04-06T15:37:27.757Z,19.62
2019-04-06T15:40:11.335Z,18.70
2019-04-06T15:42:45.955Z,17.94
2019-04-06T15:45:17.837Z,17.35
2019-04-06T15:47:49.533Z,16.92
2019-04-06T15:50:36.233Z,16.61
2019-04-06T15:53:11.236Z,16.29
2019-04-06T15:55:52.101Z,15.98
2019-04-06T15:58:27.050Z,15.77
2019-04-06T16:01:04.985Z,15.48
2019-04-06T16:03:45.972Z,15.18
2019-04-06T16:06:34.450Z,14.95
2019-04-06T16:09:11.231Z,14.76
2019-04-06T16:11:48.649Z,14.54
2019-04-06T16:14:26.148Z,14.39
2019-04-06T16:17:00.574Z,14.17
2019-04-06T16:19:32.215Z,14.01
2019-04-06T16:22:04.550Z,13.77
2019-04-06T16:24:55.049Z,13.65
2019-04-06T16:27:29.678Z,13.53
2019-04-06T16:30:17.892Z,13.33
2019-04-06T16:32:52.237Z,13.21
2019-04-06T16:35:26.849Z,13.05
2019-04-06T16:38:07.782Z,12.89
2019-04-06T16:40:42.805Z,12.82
2019-04-06T16:43:17.239Z,12.67
2019-04-06T16:46:04.941Z,12.50
2019-04-06T16:48:45.946Z,12.37
2019-04-06T16:51:23.571Z,12.22
2019-04-06T16:53:59.246Z,12.07
2019-04-06T16:56:30.995Z,11.92
2019-04-06T16:59:19.240Z,11.80
2019-04-06T17:01:53.776Z,11.58
2019-04-06T17:04:35.176Z,11.38
2019-04-06T17:07:19.447Z,11.12
2019-04-06T17:10:03.270Z,10.95
2019-04-06T17:12:38.221Z,10.83
2019-04-06T17:15:19.492Z,10.92
2019-04-06T17:18:08.653Z,10.76
2019-04-06T17:20:58.936Z,10.47
2019-04-06T17:23:34.055Z,10.28
2019-04-06T17:26:08.842Z,10.15
2019-04-06T17:28:40.513Z,10.09
2019-04-06T17:31:14.979Z,10.04
2019-04-06T17:33:49.637Z,9.93
2019-04-06T17:36:28.822Z,9.83
2019-04-06T17:39:03.158Z,9.69
2019-04-06T17:41:52.097Z,9.59
2019-04-06T17:44:40.463Z,9.48
2019-04-06T17:47:12.128Z,9.28
2019-04-06T17:49:52.856Z,9.23
2019-04-06T17:52:26.682Z,9.14
2019-04-06T17:55:16.817Z,9.00
2019-04-06T17:58:04.248Z,8.96
2019-04-06T18:00:53.942Z,8.94
2019-04-06T18:03:25.483Z,8.95
2019-04-06T18:06:03.314Z,8.94
2019-04-06T18:08:50.005Z,9.00
2019-04-06T18:11:21.543Z,9.03
2019-04-06T18:13:52.192Z,9.01
2019-04-06T18:16:24.229Z,9.05
2019-04-06T18:18:54.237Z,8.96
2019-04-06T18:21:24.575Z,8.83
2019-04-06T18:23:54.570Z,8.79
2019-04-06T18:26:24.488Z,8.84
2019-04-06T18:28:55.132Z,8.70
2019-04-06T18:31:25.923Z,8.69
2019-04-06T18:33:55.836Z,8.70
2019-04-06T18:36:27.643Z,8.44
2019-04-06T18:39:02.004Z,8.32
2019-04-06T18:41:33.614Z,8.26
2019-04-06T18:44:03.510Z,8.16
2019-04-06T18:46:34.702Z,8.22
2019-04-06T18:49:04.713Z,8.12
2019-04-06T18:51:35.016Z,7.99
2019-04-06T18:54:05.336Z,7.87
2019-04-06T18:56:35.686Z,7.76
2019-04-06T18:59:06.172Z,7.72
2019-04-06T19:01:36.224Z,7.77
2019-04-06T19:04:06.590Z,7.62
2019-04-06T19:06:36.617Z,7.62
2019-04-06T19:09:20.687Z,7.66
2019-04-06T19:11:41.945Z,7.69
2019-04-06T19:14:12.439Z,7.78
2019-04-06T19:16:42.480Z,7.97
2019-04-06T19:19:12.620Z,8.08
2019-04-06T19:21:44.486Z,8.04
2019-04-06T19:24:15.537Z,8.15
2019-04-06T19:26:47.760Z,8.22
2019-04-06T19:29:18.297Z,8.21
2019-04-06T19:31:48.335Z,8.27
2019-04-06T19:34:19.353Z,8.25
2019-04-06T19:36:49.868Z,8.22
2019-04-06T19:39:19.179Z,8.26
2019-04-06T19:41:51.073Z,8.41
2019-04-06T19:44:21.611Z,8.50
2019-04-06T19:46:51.300Z,8.47
2019-04-06T19:49:23.053Z,8.49
2019-04-06T19:51:53.245Z,8.55
2019-04-06T19:54:23.255Z,8.70
2019-04-06T19:56:53.185Z,8.59
2019-04-06T19:59:23.129Z,8.48
2019-04-06T20:01:54.645Z,8.39
2019-04-06T20:04:24.439Z,8.46
2019-04-06T20:06:54.472Z,8.56
2019-04-06T20:09:24.501Z,8.52
2019-04-06T20:12:04.314Z,8.43
2019-04-06T20:14:26.310Z,8.44
2019-04-06T20:16:56.467Z,8.51
2019-04-06T20:19:27.414Z,8.98
2019-04-06T20:21:57.798Z,8.94
2019-04-06T20:24:28.374Z,8.84
2019-04-06T20:26:58.885Z,8.79
2019-04-06T20:29:28.993Z,8.57
2019-04-06T20:31:59.811Z,8.45
2019-04-06T20:34:31.312Z,8.44
2019-04-06T20:37:02.482Z,8.81
2019-04-06T20:39:33.686Z,8.80
2019-04-06T20:42:05.258Z,8.75
2019-04-06T20:44:35.146Z,8.52
2019-04-06T20:47:05.090Z,8.36
2019-04-06T20:49:35.215Z,8.30
2019-04-06T20:52:05.159Z,8.31
2019-04-06T20:54:35.227Z,8.16
2019-04-06T20:57:05.389Z,8.17
2019-04-06T20:59:35.894Z,8.15
2019-04-06T21:02:05.673Z,8.25
2019-04-06T21:04:35.808Z,8.38
2019-04-06T21:07:05.787Z,8.35
2019-04-06T21:09:36.640Z,8.19
2019-04-06T21:12:06.856Z,8.10
2019-04-06T21:14:37.143Z,8.06
2019-04-06T21:17:07.012Z,8.15
2019-04-06T21:19:37.002Z,8.02
2019-04-06T21:22:07.030Z,8.15
2019-04-06T21:24:37.736Z,8.08
2019-04-06T21:27:07.818Z,7.82
2019-04-06T21:29:38.236Z,7.91
2019-04-06T21:32:08.423Z,7.87
2019-04-06T21:34:38.356Z,7.83
2019-04-06T21:37:08.536Z,7.79
2019-04-06T21:39:38.570Z,7.73
2019-04-06T21:42:08.562Z,7.63
2019-04-06T21:44:38.870Z,7.77
2019-04-06T21:47:09.048Z,7.77
2019-04-06T21:49:39.038Z,7.58
2019-04-06T21:52:09.013Z,7.68
2019-04-06T21:54:38.954Z,7.67
2019-04-06T21:57:09.313Z,7.69
2019-04-06T21:59:39.506Z,7.48
2019-04-06T22:02:09.567Z,7.57
2019-04-06T22:04:39.525Z,7.30
2019-04-06T22:07:09.834Z,7.23
2019-04-06T22:09:40.034Z,7.13
2019-04-06T22:12:10.019Z,6.90
2019-04-06T22:14:39.960Z,6.71
2019-04-06T22:17:10.198Z,6.67
2019-04-06T22:19:40.899Z,6.51
2019-04-06T22:22:11.119Z,6.43
2019-04-06T22:24:41.806Z,6.30
2019-04-06T22:27:11.091Z,6.21
2019-04-06T22:29:40.809Z,6.15
2019-04-06T22:32:10.740Z,6.21
2019-04-06T22:34:41.753Z,6.12
2019-04-06T22:37:12.781Z,6.07
2019-04-06T22:39:43.242Z,5.94
2019-04-06T22:42:12.700Z,6.03
2019-04-06T22:44:42.788Z,6.01
2019-04-06T22:47:12.929Z,5.91
2019-04-06T22:49:43.274Z,6.07
2019-04-06T22:52:13.359Z,5.92
2019-04-06T22:54:43.552Z,5.78
2019-04-06T22:57:13.655Z,5.64
2019-04-06T22:59:43.533Z,5.67
2019-04-06T23:02:13.527Z,5.50
2019-04-06T23:04:49.494Z,5.55
2019-04-06T23:07:18.914Z,5.63
2019-04-06T23:09:49.366Z,5.52
2019-04-06T23:12:19.439Z,5.42
2019-04-06T23:14:49.909Z,5.63
2019-04-06T23:17:19.610Z,5.44
2019-04-06T23:19:49.724Z,5.39
2019-04-06T23:22:19.758Z,5.48
2019-04-06T23:24:49.910Z,5.36
2019-04-06T23:27:20.490Z,5.45
2019-04-06T23:29:49.790Z,5.35
2019-04-06T23:32:20.360Z,5.37
2019-04-06T23:34:58.833Z,5.42
2019-04-06T23:37:22.227Z,5.34
2019-04-06T23:39:52.163Z,5.39
2019-04-06T23:42:22.095Z,5.37
2019-04-06T23:44:52.131Z,5.48
2019-04-06T23:47:22.068Z,5.43
2019-04-06T23:49:52.012Z,5.50
2019-04-06T23:52:22.136Z,5.34
2019-04-06T23:54:52.075Z,5.45
2019-04-06T23:57:22.224Z,5.37
2019-04-06T23:59:53.275Z,5.20
